sensor_id;sensor_type;location;lat;lon;timestamp;P1;durP1;ratioP1;P2;durP2;ratioP2
76752;SDS011;65687;51.308;16.916;2023-06-22T00:04:35;12.10;;;10.20;;
76752;SDS011;65687;51.308;16.916;2023-06-22T00:09:37;11.60;;;10.20;;
76752;SDS011;65687;51.308;16.916;2023-06-22T00:19:40;11.30;;;10.10;;
76752;SDS011;65687;51.308;16.916;2023-06-22T00:24:41;12.70;;;10.90;;
76752;SDS011;65687;51.308;16.916;2023-06-22T00:29:43;12.00;;;9.60;;
76752;SDS011;65687;51.308;16.916;2023-06-22T00:39:46;12.40;;;10.00;;
76752;SDS011;65687;51.308;16.916;2023-06-22T00:44:47;12.60;;;11.00;;
76752;SDS011;65687;51.308;16.916;2023-06-22T00:49:49;13.40;;;12.00;;
76752;SDS011;65687;51.308;16.916;2023-06-22T00:54:53;14.10;;;12.10;;
76752;SDS011;65687;51.308;16.916;2023-06-22T00:59:55;13.90;;;11.20;;
76752;SDS011;65687;51.308;16.916;2023-06-22T01:04:57;13.70;;;12.30;;
76752;SDS011;65687;51.308;16.916;2023-06-22T01:15:27;16.00;;;12.00;;
76752;SDS011;65687;51.308;16.916;2023-06-22T01:20:34;14.30;;;12.10;;
76752;SDS011;65687;51.308;16.916;2023-06-22T01:31:29;14.20;;;12.60;;
76752;SDS011;65687;51.308;16.916;2023-06-22T01:36:32;14.00;;;12.50;;
76752;SDS011;65687;51.308;16.916;2023-06-22T01:41:36;14.90;;;12.20;;
76752;SDS011;65687;51.308;16.916;2023-06-22T01:46:38;15.50;;;12.20;;
76752;SDS011;65687;51.308;16.916;2023-06-22T01:51:41;15.20;;;12.20;;
76752;SDS011;65687;51.308;16.916;2023-06-22T02:01:48;14.20;;;12.30;;
76752;SDS011;65687;51.308;16.916;2023-06-22T02:07:02;15.70;;;12.90;;
76752;SDS011;65687;51.308;16.916;2023-06-22T02:12:10;13.60;;;12.00;;
76752;SDS011;65687;51.308;16.916;2023-06-22T02:17:13;15.30;;;12.30;;
76752;SDS011;65687;51.308;16.916;2023-06-22T02:27:16;12.80;;;11.40;;
76752;SDS011;65687;51.308;16.916;2023-06-22T02:32:18;13.30;;;11.80;;
76752;SDS011;65687;51.308;16.916;2023-06-22T02:37:19;14.70;;;12.30;;
76752;SDS011;65687;51.308;16.916;2023-06-22T02:42:21;16.90;;;13.40;;
76752;SDS011;65687;51.308;16.916;2023-06-22T02:47:22;16.10;;;13.40;;
76752;SDS011;65687;51.308;16.916;2023-06-22T02:52:24;16.40;;;14.10;;
76752;SDS011;65687;51.308;16.916;2023-06-22T02:57:25;15.60;;;12.90;;
76752;SDS011;65687;51.308;16.916;2023-06-22T03:02:27;14.80;;;13.10;;
76752;SDS011;65687;51.308;16.916;2023-06-22T03:07:29;16.30;;;13.20;;
76752;SDS011;65687;51.308;16.916;2023-06-22T03:12:31;14.20;;;12.40;;
76752;SDS011;65687;51.308;16.916;2023-06-22T03:17:33;17.80;;;14.60;;
76752;SDS011;65687;51.308;16.916;2023-06-22T03:22:36;17.60;;;13.40;;
76752;SDS011;65687;51.308;16.916;2023-06-22T03:27:41;16.40;;;14.70;;
76752;SDS011;65687;51.308;16.916;2023-06-22T03:32:44;15.10;;;12.80;;
76752;SDS011;65687;51.308;16.916;2023-06-22T03:37:47;14.30;;;11.90;;
76752;SDS011;65687;51.308;16.916;2023-06-22T03:42:49;12.50;;;10.60;;
76752;SDS011;65687;51.308;16.916;2023-06-22T03:47:50;15.40;;;12.30;;
76752;SDS011;65687;51.308;16.916;2023-06-22T03:52:52;16.90;;;13.80;;
76752;SDS011;65687;51.308;16.916;2023-06-22T04:02:58;14.10;;;11.30;;
76752;SDS011;65687;51.308;16.916;2023-06-22T04:07:59;16.20;;;13.60;;
76752;SDS011;65687;51.308;16.916;2023-06-22T04:13:01;14.70;;;13.20;;
76752;SDS011;65687;51.308;16.916;2023-06-22T04:18:05;14.50;;;12.90;;
76752;SDS011;65687;51.308;16.916;2023-06-22T04:23:06;17.40;;;15.10;;
76752;SDS011;65687;51.308;16.916;2023-06-22T04:28:08;17.00;;;14.80;;
76752;SDS011;65687;51.308;16.916;2023-06-22T04:33:14;15.60;;;13.50;;
76752;SDS011;65687;51.308;16.916;2023-06-22T04:38:16;14.40;;;12.80;;
76752;SDS011;65687;51.308;16.916;2023-06-22T04:43:18;14.70;;;12.70;;
76752;SDS011;65687;51.308;16.916;2023-06-22T04:48:19;16.40;;;13.70;;
76752;SDS011;65687;51.308;16.916;2023-06-22T04:53:21;17.00;;;14.40;;
76752;SDS011;65687;51.308;16.916;2023-06-22T04:58:22;21.60;;;19.20;;
76752;SDS011;65687;51.308;16.916;2023-06-22T05:03:24;21.70;;;18.00;;
76752;SDS011;65687;51.308;16.916;2023-06-22T05:08:27;22.30;;;18.70;;
76752;SDS011;65687;51.308;16.916;2023-06-22T05:13:29;22.40;;;18.60;;
76752;SDS011;65687;51.308;16.916;2023-06-22T05:18:31;24.60;;;19.60;;
76752;SDS011;65687;51.308;16.916;2023-06-22T05:23:33;24.40;;;19.60;;
76752;SDS011;65687;51.308;16.916;2023-06-22T05:28:34;20.30;;;16.80;;
76752;SDS011;65687;51.308;16.916;2023-06-22T05:33:36;21.10;;;17.10;;
76752;SDS011;65687;51.308;16.916;2023-06-22T05:38:37;21.60;;;19.10;;
76752;SDS011;65687;51.308;16.916;2023-06-22T05:43:40;20.60;;;17.20;;
76752;SDS011;65687;51.308;16.916;2023-06-22T05:48:42;21.30;;;17.00;;
76752;SDS011;65687;51.308;16.916;2023-06-22T05:53:43;20.40;;;13.80;;
76752;SDS011;65687;51.308;16.916;2023-06-22T05:58:45;18.00;;;14.40;;
76752;SDS011;65687;51.308;16.916;2023-06-22T06:03:48;16.60;;;13.70;;
76752;SDS011;65687;51.308;16.916;2023-06-22T06:08:50;15.00;;;12.10;;
76752;SDS011;65687;51.308;16.916;2023-06-22T06:13:52;15.60;;;12.00;;
76752;SDS011;65687;51.308;16.916;2023-06-22T06:18:53;13.90;;;11.50;;
76752;SDS011;65687;51.308;16.916;2023-06-22T06:23:57;14.20;;;12.00;;
76752;SDS011;65687;51.308;16.916;2023-06-22T06:34:01;13.20;;;10.30;;
76752;SDS011;65687;51.308;16.916;2023-06-22T06:39:03;12.90;;;11.50;;
76752;SDS011;65687;51.308;16.916;2023-06-22T06:44:05;13.60;;;11.50;;
76752;SDS011;65687;51.308;16.916;2023-06-22T06:54:08;13.90;;;10.70;;
76752;SDS011;65687;51.308;16.916;2023-06-22T06:59:10;15.10;;;13.10;;
76752;SDS011;65687;51.308;16.916;2023-06-22T07:04:11;15.60;;;13.70;;
76752;SDS011;65687;51.308;16.916;2023-06-22T07:09:12;18.80;;;13.70;;
76752;SDS011;65687;51.308;16.916;2023-06-22T07:14:14;17.70;;;14.40;;
76752;SDS011;65687;51.308;16.916;2023-06-22T07:24:17;18.00;;;15.10;;
76752;SDS011;65687;51.308;16.916;2023-06-22T07:29:21;16.90;;;15.20;;
76752;SDS011;65687;51.308;16.916;2023-06-22T07:39:23;16.10;;;14.00;;
76752;SDS011;65687;51.308;16.916;2023-06-22T07:44:27;16.50;;;13.00;;
76752;SDS011;65687;51.308;16.916;2023-06-22T07:49:29;15.50;;;13.20;;
76752;SDS011;65687;51.308;16.916;2023-06-22T07:54:30;17.40;;;15.20;;
76752;SDS011;65687;51.308;16.916;2023-06-22T07:59:32;15.40;;;12.80;;
76752;SDS011;65687;51.308;16.916;2023-06-22T08:04:34;14.80;;;12.70;;
76752;SDS011;65687;51.308;16.916;2023-06-22T08:09:35;18.40;;;13.50;;
76752;SDS011;65687;51.308;16.916;2023-06-22T08:14:38;16.90;;;14.00;;
76752;SDS011;65687;51.308;16.916;2023-06-22T08:19:40;14.10;;;12.40;;
76752;SDS011;65687;51.308;16.916;2023-06-22T08:24:42;16.40;;;12.50;;
76752;SDS011;65687;51.308;16.916;2023-06-22T08:29:43;12.30;;;10.90;;
76752;SDS011;65687;51.308;16.916;2023-06-22T08:34:46;11.70;;;10.50;;
76752;SDS011;65687;51.308;16.916;2023-06-22T08:39:48;12.10;;;10.90;;
76752;SDS011;65687;51.308;16.916;2023-06-22T08:44:50;11.70;;;10.40;;
76752;SDS011;65687;51.308;16.916;2023-06-22T08:49:51;10.50;;;9.30;;
76752;SDS011;65687;51.308;16.916;2023-06-22T08:54:53;10.80;;;9.70;;
76752;SDS011;65687;51.308;16.916;2023-06-22T08:59:54;9.80;;;8.80;;
76752;SDS011;65687;51.308;16.916;2023-06-22T09:04:59;9.50;;;8.30;;
76752;SDS011;65687;51.308;16.916;2023-06-22T09:10:01;11.50;;;9.30;;
76752;SDS011;65687;51.308;16.916;2023-06-22T09:15:03;10.10;;;9.10;;
76752;SDS011;65687;51.308;16.916;2023-06-22T09:20:05;11.00;;;8.80;;
76752;SDS011;65687;51.308;16.916;2023-06-22T09:25:09;8.90;;;8.00;;
76752;SDS011;65687;51.308;16.916;2023-06-22T09:30:10;8.50;;;7.50;;
76752;SDS011;65687;51.308;16.916;2023-06-22T09:35:13;8.50;;;7.60;;
76752;SDS011;65687;51.308;16.916;2023-06-22T09:40:16;7.30;;;6.50;;
76752;SDS011;65687;51.308;16.916;2023-06-22T09:45:18;8.70;;;7.60;;
76752;SDS011;65687;51.308;16.916;2023-06-22T09:50:19;10.10;;;7.60;;
76752;SDS011;65687;51.308;16.916;2023-06-22T09:55:21;8.60;;;7.00;;
76752;SDS011;65687;51.308;16.916;2023-06-22T10:00:23;9.10;;;7.30;;
76752;SDS011;65687;51.308;16.916;2023-06-22T10:05:25;7.70;;;6.90;;
76752;SDS011;65687;51.308;16.916;2023-06-22T10:10:26;11.10;;;7.70;;
76752;SDS011;65687;51.308;16.916;2023-06-22T10:15:28;8.10;;;7.30;;
76752;SDS011;65687;51.308;16.916;2023-06-22T10:20:29;7.80;;;7.00;;
76752;SDS011;65687;51.308;16.916;2023-06-22T10:25:31;7.60;;;6.80;;
76752;SDS011;65687;51.308;16.916;2023-06-22T10:30:32;7.20;;;6.50;;
76752;SDS011;65687;51.308;16.916;2023-06-22T10:35:34;8.20;;;6.80;;
76752;SDS011;65687;51.308;16.916;2023-06-22T10:40:38;8.10;;;7.20;;
76752;SDS011;65687;51.308;16.916;2023-06-22T10:45:40;7.20;;;6.50;;
76752;SDS011;65687;51.308;16.916;2023-06-22T10:50:42;9.60;;;6.80;;
76752;SDS011;65687;51.308;16.916;2023-06-22T10:55:44;8.00;;;6.20;;
76752;SDS011;65687;51.308;16.916;2023-06-22T11:00:45;8.50;;;7.70;;
76752;SDS011;65687;51.308;16.916;2023-06-22T11:05:47;6.60;;;6.00;;
76752;SDS011;65687;51.308;16.916;2023-06-22T11:10:50;7.30;;;6.50;;
76752;SDS011;65687;51.308;16.916;2023-06-22T11:15:52;7.30;;;6.60;;
76752;SDS011;65687;51.308;16.916;2023-06-22T11:20:54;7.70;;;6.60;;
76752;SDS011;65687;51.308;16.916;2023-06-22T11:25:56;7.90;;;6.50;;
76752;SDS011;65687;51.308;16.916;2023-06-22T11:30:58;6.70;;;6.00;;
76752;SDS011;65687;51.308;16.916;2023-06-22T11:36:00;7.10;;;6.40;;
76752;SDS011;65687;51.308;16.916;2023-06-22T11:41:02;6.70;;;6.00;;
76752;SDS011;65687;51.308;16.916;2023-06-22T11:46:04;7.70;;;6.70;;
76752;SDS011;65687;51.308;16.916;2023-06-22T11:51:05;7.70;;;6.50;;
76752;SDS011;65687;51.308;16.916;2023-06-22T11:56:09;7.20;;;6.20;;
76752;SDS011;65687;51.308;16.916;2023-06-22T12:01:11;7.00;;;6.10;;
76752;SDS011;65687;51.308;16.916;2023-06-22T12:06:16;8.60;;;6.00;;
76752;SDS011;65687;51.308;16.916;2023-06-22T12:11:17;7.20;;;6.00;;
76752;SDS011;65687;51.308;16.916;2023-06-22T12:16:19;6.50;;;5.80;;
76752;SDS011;65687;51.308;16.916;2023-06-22T12:21:22;7.20;;;6.50;;
76752;SDS011;65687;51.308;16.916;2023-06-22T12:26:24;7.30;;;5.90;;
76752;SDS011;65687;51.308;16.916;2023-06-22T12:31:27;6.70;;;6.00;;
76752;SDS011;65687;51.308;16.916;2023-06-22T12:36:28;7.40;;;6.20;;
76752;SDS011;65687;51.308;16.916;2023-06-22T12:41:30;7.30;;;6.10;;
76752;SDS011;65687;51.308;16.916;2023-06-22T12:46:31;6.30;;;5.70;;
76752;SDS011;65687;51.308;16.916;2023-06-22T12:51:42;6.30;;;5.70;;
76752;SDS011;65687;51.308;16.916;2023-06-22T12:56:45;6.10;;;5.50;;
76752;SDS011;65687;51.308;16.916;2023-06-22T13:01:46;6.30;;;5.70;;
76752;SDS011;65687;51.308;16.916;2023-06-22T13:06:48;6.60;;;5.70;;
76752;SDS011;65687;51.308;16.916;2023-06-22T13:11:50;6.80;;;5.70;;
76752;SDS011;65687;51.308;16.916;2023-06-22T13:16:53;6.80;;;6.00;;
76752;SDS011;65687;51.308;16.916;2023-06-22T13:21:55;8.50;;;6.70;;
76752;SDS011;65687;51.308;16.916;2023-06-22T13:26:56;8.20;;;6.20;;
76752;SDS011;65687;51.308;16.916;2023-06-22T13:31:58;6.20;;;5.50;;
76752;SDS011;65687;51.308;16.916;2023-06-22T13:37:00;7.00;;;6.30;;
76752;SDS011;65687;51.308;16.916;2023-06-22T13:42:03;8.40;;;5.80;;
76752;SDS011;65687;51.308;16.916;2023-06-22T13:47:05;7.80;;;7.10;;
76752;SDS011;65687;51.308;16.916;2023-06-22T13:52:07;6.70;;;6.00;;
76752;SDS011;65687;51.308;16.916;2023-06-22T13:57:11;6.60;;;6.00;;
76752;SDS011;65687;51.308;16.916;2023-06-22T14:02:13;6.60;;;5.90;;
76752;SDS011;65687;51.308;16.916;2023-06-22T14:07:15;6.80;;;6.10;;
76752;SDS011;65687;51.308;16.916;2023-06-22T14:12:16;7.20;;;6.30;;
76752;SDS011;65687;51.308;16.916;2023-06-22T14:17:21;7.30;;;6.30;;
76752;SDS011;65687;51.308;16.916;2023-06-22T14:22:26;6.60;;;6.00;;
76752;SDS011;65687;51.308;16.916;2023-06-22T14:27:30;7.60;;;6.50;;
76752;SDS011;65687;51.308;16.916;2023-06-22T14:32:32;7.50;;;6.00;;
76752;SDS011;65687;51.308;16.916;2023-06-22T14:37:33;6.70;;;6.00;;
76752;SDS011;65687;51.308;16.916;2023-06-22T14:42:35;7.10;;;6.30;;
76752;SDS011;65687;51.308;16.916;2023-06-22T14:47:36;7.40;;;6.60;;
76752;SDS011;65687;51.308;16.916;2023-06-22T14:52:38;6.90;;;6.20;;
76752;SDS011;65687;51.308;16.916;2023-06-22T14:57:39;7.00;;;6.20;;
76752;SDS011;65687;51.308;16.916;2023-06-22T15:02:41;7.10;;;6.40;;
76752;SDS011;65687;51.308;16.916;2023-06-22T15:07:42;7.10;;;6.40;;
76752;SDS011;65687;51.308;16.916;2023-06-22T15:12:44;8.20;;;6.40;;
76752;SDS011;65687;51.308;16.916;2023-06-22T15:17:46;11.10;;;8.00;;
76752;SDS011;65687;51.308;16.916;2023-06-22T15:22:47;7.40;;;6.70;;
76752;SDS011;65687;51.308;16.916;2023-06-22T15:27:49;8.20;;;7.00;;
76752;SDS011;65687;51.308;16.916;2023-06-22T15:32:50;8.00;;;7.30;;
76752;SDS011;65687;51.308;16.916;2023-06-22T15:37:52;8.00;;;6.90;;
76752;SDS011;65687;51.308;16.916;2023-06-22T15:42:53;7.00;;;6.30;;
76752;SDS011;65687;51.308;16.916;2023-06-22T15:47:55;7.50;;;6.70;;
76752;SDS011;65687;51.308;16.916;2023-06-22T15:52:57;7.90;;;6.70;;
76752;SDS011;65687;51.308;16.916;2023-06-22T15:57:58;7.90;;;6.60;;
76752;SDS011;65687;51.308;16.916;2023-06-22T16:03:00;7.60;;;6.50;;
76752;SDS011;65687;51.308;16.916;2023-06-22T16:08:02;7.30;;;6.20;;
76752;SDS011;65687;51.308;16.916;2023-06-22T16:13:04;6.30;;;5.70;;
76752;SDS011;65687;51.308;16.916;2023-06-22T16:18:05;7.10;;;5.80;;
76752;SDS011;65687;51.308;16.916;2023-06-22T16:23:08;6.30;;;5.70;;
76752;SDS011;65687;51.308;16.916;2023-06-22T16:28:10;6.20;;;5.60;;
76752;SDS011;65687;51.308;16.916;2023-06-22T16:33:12;4.80;;;4.40;;
76752;SDS011;65687;51.308;16.916;2023-06-22T16:38:13;6.30;;;5.10;;
76752;SDS011;65687;51.308;16.916;2023-06-22T16:43:15;5.40;;;4.80;;
76752;SDS011;65687;51.308;16.916;2023-06-22T16:48:17;7.30;;;5.10;;
76752;SDS011;65687;51.308;16.916;2023-06-22T16:53:18;7.70;;;5.80;;
76752;SDS011;65687;51.308;16.916;2023-06-22T16:58:22;6.00;;;5.30;;
76752;SDS011;65687;51.308;16.916;2023-06-22T17:08:29;6.30;;;5.10;;
76752;SDS011;65687;51.308;16.916;2023-06-22T17:13:34;6.30;;;4.90;;
76752;SDS011;65687;51.308;16.916;2023-06-22T17:18:36;6.20;;;5.20;;
76752;SDS011;65687;51.308;16.916;2023-06-22T17:23:40;7.30;;;5.10;;
76752;SDS011;65687;51.308;16.916;2023-06-22T17:28:48;6.30;;;5.50;;
76752;SDS011;65687;51.308;16.916;2023-06-22T17:34:12;5.50;;;4.90;;
76752;SDS011;65687;51.308;16.916;2023-06-22T17:39:20;5.30;;;4.80;;
76752;SDS011;65687;51.308;16.916;2023-06-22T17:44:24;5.50;;;4.70;;
76752;SDS011;65687;51.308;16.916;2023-06-22T17:49:28;6.40;;;4.70;;
76752;SDS011;65687;51.308;16.916;2023-06-22T17:54:31;5.30;;;4.80;;
76752;SDS011;65687;51.308;16.916;2023-06-22T17:59:32;5.40;;;4.70;;
76752;SDS011;65687;51.308;16.916;2023-06-22T18:04:35;7.10;;;4.50;;
76752;SDS011;65687;51.308;16.916;2023-06-22T18:09:37;7.10;;;5.10;;
76752;SDS011;65687;51.308;16.916;2023-06-22T18:14:41;8.40;;;5.00;;
76752;SDS011;65687;51.308;16.916;2023-06-22T18:19:43;6.60;;;4.60;;
76752;SDS011;65687;51.308;16.916;2023-06-22T18:24:47;6.80;;;4.00;;
76752;SDS011;65687;51.308;16.916;2023-06-22T18:29:50;5.20;;;4.30;;
76752;SDS011;65687;51.308;16.916;2023-06-22T18:34:52;6.10;;;4.50;;
76752;SDS011;65687;51.308;16.916;2023-06-22T18:39:53;6.10;;;4.70;;
76752;SDS011;65687;51.308;16.916;2023-06-22T18:44:57;5.50;;;4.20;;
76752;SDS011;65687;51.308;16.916;2023-06-22T18:50:06;5.70;;;4.60;;
76752;SDS011;65687;51.308;16.916;2023-06-22T18:55:11;5.30;;;3.70;;
76752;SDS011;65687;51.308;16.916;2023-06-22T19:00:14;4.90;;;4.10;;
76752;SDS011;65687;51.308;16.916;2023-06-22T19:05:16;4.90;;;3.80;;
76752;SDS011;65687;51.308;16.916;2023-06-22T19:15:22;4.00;;;3.30;;
76752;SDS011;65687;51.308;16.916;2023-06-22T19:20:33;4.50;;;3.60;;
76752;SDS011;65687;51.308;16.916;2023-06-22T19:25:35;4.50;;;3.50;;
76752;SDS011;65687;51.308;16.916;2023-06-22T19:30:37;4.90;;;3.80;;
76752;SDS011;65687;51.308;16.916;2023-06-22T19:35:42;4.40;;;3.70;;
76752;SDS011;65687;51.308;16.916;2023-06-22T19:40:44;3.80;;;3.40;;
76752;SDS011;65687;51.308;16.916;2023-06-22T19:45:46;4.80;;;3.70;;
76752;SDS011;65687;51.308;16.916;2023-06-22T19:50:48;4.60;;;3.50;;
76752;SDS011;65687;51.308;16.916;2023-06-22T19:55:50;5.30;;;3.60;;
76752;SDS011;65687;51.308;16.916;2023-06-22T20:00:54;4.70;;;3.10;;
76752;SDS011;65687;51.308;16.916;2023-06-22T20:06:14;4.60;;;3.40;;
76752;SDS011;65687;51.308;16.916;2023-06-22T20:11:27;4.80;;;3.60;;
76752;SDS011;65687;51.308;16.916;2023-06-22T20:16:30;5.10;;;3.00;;
76752;SDS011;65687;51.308;16.916;2023-06-22T20:21:31;4.90;;;3.30;;
76752;SDS011;65687;51.308;16.916;2023-06-22T20:26:43;4.80;;;3.40;;
76752;SDS011;65687;51.308;16.916;2023-06-22T20:31:46;5.70;;;3.10;;
76752;SDS011;65687;51.308;16.916;2023-06-22T20:41:49;4.10;;;3.20;;
76752;SDS011;65687;51.308;16.916;2023-06-22T20:46:50;3.80;;;3.00;;
76752;SDS011;65687;51.308;16.916;2023-06-22T20:56:54;4.60;;;3.10;;
76752;SDS011;65687;51.308;16.916;2023-06-22T21:06:57;5.60;;;3.20;;
76752;SDS011;65687;51.308;16.916;2023-06-22T21:11:59;5.50;;;3.30;;
76752;SDS011;65687;51.308;16.916;2023-06-22T21:17:00;4.50;;;3.30;;
76752;SDS011;65687;51.308;16.916;2023-06-22T21:27:03;4.30;;;3.30;;
76752;SDS011;65687;51.308;16.916;2023-06-22T21:32:05;5.30;;;3.70;;
76752;SDS011;65687;51.308;16.916;2023-06-22T21:37:07;4.50;;;3.20;;
76752;SDS011;65687;51.308;16.916;2023-06-22T21:47:10;4.70;;;3.20;;
76752;SDS011;65687;51.308;16.916;2023-06-22T21:52:12;6.10;;;3.40;;
76752;SDS011;65687;51.308;16.916;2023-06-22T21:57:13;5.20;;;3.80;;
76752;SDS011;65687;51.308;16.916;2023-06-22T22:02:15;5.10;;;3.60;;
76752;SDS011;65687;51.308;16.916;2023-06-22T22:12:19;7.60;;;3.60;;
76752;SDS011;65687;51.308;16.916;2023-06-22T22:17:21;4.60;;;4.10;;
76752;SDS011;65687;51.308;16.916;2023-06-22T22:27:24;5.20;;;3.10;;
76752;SDS011;65687;51.308;16.916;2023-06-22T22:32:25;4.80;;;3.20;;
76752;SDS011;65687;51.308;16.916;2023-06-22T22:42:28;4.40;;;3.30;;
76752;SDS011;65687;51.308;16.916;2023-06-22T22:47:30;4.80;;;3.60;;
76752;SDS011;65687;51.308;16.916;2023-06-22T22:52:32;4.10;;;3.40;;
76752;SDS011;65687;51.308;16.916;2023-06-22T22:57:35;5.00;;;3.60;;
76752;SDS011;65687;51.308;16.916;2023-06-22T23:02:40;5.90;;;3.70;;
76752;SDS011;65687;51.308;16.916;2023-06-22T23:07:45;4.60;;;3.40;;
76752;SDS011;65687;51.308;16.916;2023-06-22T23:12:47;4.00;;;3.10;;
76752;SDS011;65687;51.308;16.916;2023-06-22T23:22:53;5.50;;;3.60;;
76752;SDS011;65687;51.308;16.916;2023-06-22T23:27:59;4.60;;;3.40;;
76752;SDS011;65687;51.308;16.916;2023-06-22T23:33:01;4.50;;;3.30;;
76752;SDS011;65687;51.308;16.916;2023-06-22T23:38:02;4.60;;;3.30;;
76752;SDS011;65687;51.308;16.916;2023-06-22T23:48:07;3.90;;;3.10;;
76752;SDS011;65687;51.308;16.916;2023-06-22T23:53:09;5.20;;;3.50;;
76752;SDS011;65687;51.308;16.916;2023-06-22T23:58:11;5.20;;;3.30;;
